Terminal Aerodrome Forecast
Issued by NWS Brownsville, TX

Current Version | Previous Version | Text Only | Print | Product List | Glossary Off
Versions: 1 2 3 4 5 6 7 8 9 10 11 12 13

088
FTUS44 KBRO 250520
TAFBRO
TAF
KBRO 250520Z 2506/2606 16008KT P6SM SCT250
     FM251500 15013G18KT P6SM VCSH SCT030 BKN050 PROB30 2518/2524
      P6SM -TSRA BKN030CB
     FM260300 12010KT P6SM SCT050 BKN250=

USA.gov is the U.S. government's official web portal to all federal, state and local government web resources and services.